sensor_id;sensor_type;location;lat;lon;timestamp;P1;durP1;ratioP1;P2;durP2;ratioP2
56537;SDS011;42435;53.292;6.000;2023-11-18T00:01:09;58.33;;;28.77;;
56537;SDS011;42435;53.292;6.000;2023-11-18T00:03:44;57.92;;;28.10;;
56537;SDS011;42435;53.292;6.000;2023-11-18T00:06:44;59.60;;;29.98;;
56537;SDS011;42435;53.292;6.000;2023-11-18T00:09:29;58.72;;;29.35;;
56537;SDS011;42435;53.292;6.000;2023-11-18T00:12:28;57.83;;;29.40;;
56537;SDS011;42435;53.292;6.000;2023-11-18T00:15:36;61.13;;;28.73;;
56537;SDS011;42435;53.292;6.000;2023-11-18T00:19:14;52.53;;;27.85;;
56537;SDS011;42435;53.292;6.000;2023-11-18T00:22:27;60.83;;;29.45;;
56537;SDS011;42435;53.292;6.000;2023-11-18T00:24:56;65.95;;;30.60;;
56537;SDS011;42435;53.292;6.000;2023-11-18T00:27:40;66.40;;;29.67;;
56537;SDS011;42435;53.292;6.000;2023-11-18T00:30:22;64.90;;;30.58;;
56537;SDS011;42435;53.292;6.000;2023-11-18T00:32:54;71.32;;;31.30;;
56537;SDS011;42435;53.292;6.000;2023-11-18T00:35:35;63.05;;;29.95;;
56537;SDS011;42435;53.292;6.000;2023-11-18T00:38:44;62.78;;;28.55;;
56537;SDS011;42435;53.292;6.000;2023-11-18T00:41:18;68.05;;;30.63;;
56537;SDS011;42435;53.292;6.000;2023-11-18T00:43:47;69.97;;;31.52;;
56537;SDS011;42435;53.292;6.000;2023-11-18T00:46:18;68.15;;;29.63;;
56537;SDS011;42435;53.292;6.000;2023-11-18T00:48:43;64.75;;;29.13;;
56537;SDS011;42435;53.292;6.000;2023-11-18T00:51:11;66.05;;;29.02;;
56537;SDS011;42435;53.292;6.000;2023-11-18T00:53:38;67.13;;;30.27;;
56537;SDS011;42435;53.292;6.000;2023-11-18T00:56:16;63.97;;;28.33;;
56537;SDS011;42435;53.292;6.000;2023-11-18T00:58:50;74.72;;;30.85;;
56537;SDS011;42435;53.292;6.000;2023-11-18T01:01:27;62.97;;;29.30;;
56537;SDS011;42435;53.292;6.000;2023-11-18T01:03:57;77.22;;;32.05;;
56537;SDS011;42435;53.292;6.000;2023-11-18T01:06:27;70.22;;;31.20;;
56537;SDS011;42435;53.292;6.000;2023-11-18T01:08:57;63.83;;;28.75;;
56537;SDS011;42435;53.292;6.000;2023-11-18T01:11:30;66.80;;;30.65;;
56537;SDS011;42435;53.292;6.000;2023-11-18T01:14:00;68.90;;;29.25;;
56537;SDS011;42435;53.292;6.000;2023-11-18T01:16:27;66.90;;;29.90;;
56537;SDS011;42435;53.292;6.000;2023-11-18T01:18:56;69.30;;;30.38;;
56537;SDS011;42435;53.292;6.000;2023-11-18T01:21:23;73.25;;;32.45;;
56537;SDS011;42435;53.292;6.000;2023-11-18T01:23:56;76.55;;;31.38;;
56537;SDS011;42435;53.292;6.000;2023-11-18T01:26:28;70.65;;;31.50;;
56537;SDS011;42435;53.292;6.000;2023-11-18T01:29:00;75.18;;;32.88;;
56537;SDS011;42435;53.292;6.000;2023-11-18T01:31:31;66.60;;;29.80;;
56537;SDS011;42435;53.292;6.000;2023-11-18T01:33:58;61.88;;;27.73;;
56537;SDS011;42435;53.292;6.000;2023-11-18T01:36:29;70.65;;;30.40;;
56537;SDS011;42435;53.292;6.000;2023-11-18T01:38:56;71.97;;;31.38;;
56537;SDS011;42435;53.292;6.000;2023-11-18T01:41:33;74.80;;;30.88;;
56537;SDS011;42435;53.292;6.000;2023-11-18T01:44:01;67.75;;;30.42;;
56537;SDS011;42435;53.292;6.000;2023-11-18T01:46:40;68.40;;;30.25;;
56537;SDS011;42435;53.292;6.000;2023-11-18T01:49:13;80.38;;;32.45;;
56537;SDS011;42435;53.292;6.000;2023-11-18T01:51:51;76.18;;;31.38;;
56537;SDS011;42435;53.292;6.000;2023-11-18T01:54:31;72.90;;;33.67;;
56537;SDS011;42435;53.292;6.000;2023-11-18T01:56:57;74.93;;;31.27;;
56537;SDS011;42435;53.292;6.000;2023-11-18T01:59:44;76.47;;;32.45;;
56537;SDS011;42435;53.292;6.000;2023-11-18T02:02:17;77.63;;;32.93;;
56537;SDS011;42435;53.292;6.000;2023-11-18T02:04:46;62.88;;;28.75;;
56537;SDS011;42435;53.292;6.000;2023-11-18T02:07:20;69.55;;;31.10;;
56537;SDS011;42435;53.292;6.000;2023-11-18T02:09:56;72.25;;;32.60;;
56537;SDS011;42435;53.292;6.000;2023-11-18T02:12:46;70.95;;;31.33;;
56537;SDS011;42435;53.292;6.000;2023-11-18T02:15:29;78.65;;;33.55;;
56537;SDS011;42435;53.292;6.000;2023-11-18T02:18:06;73.22;;;30.90;;
56537;SDS011;42435;53.292;6.000;2023-11-18T02:20:46;85.93;;;35.70;;
56537;SDS011;42435;53.292;6.000;2023-11-18T02:23:51;84.20;;;34.47;;
56537;SDS011;42435;53.292;6.000;2023-11-18T02:26:43;77.70;;;32.20;;
56537;SDS011;42435;53.292;6.000;2023-11-18T02:29:14;82.88;;;34.00;;
56537;SDS011;42435;53.292;6.000;2023-11-18T02:31:47;82.65;;;36.05;;
56537;SDS011;42435;53.292;6.000;2023-11-18T02:34:45;76.57;;;34.58;;
56537;SDS011;42435;53.292;6.000;2023-11-18T02:40:43;87.60;;;33.78;;
56537;SDS011;42435;53.292;6.000;2023-11-18T02:43:14;80.70;;;35.85;;
56537;SDS011;42435;53.292;6.000;2023-11-18T02:45:42;78.43;;;32.58;;
56537;SDS011;42435;53.292;6.000;2023-11-18T02:48:21;91.25;;;36.17;;
56537;SDS011;42435;53.292;6.000;2023-11-18T02:50:57;79.05;;;33.15;;
56537;SDS011;42435;53.292;6.000;2023-11-18T02:53:26;86.70;;;37.40;;
56537;SDS011;42435;53.292;6.000;2023-11-18T02:56:04;77.40;;;33.13;;
56537;SDS011;42435;53.292;6.000;2023-11-18T02:58:35;94.90;;;38.72;;
56537;SDS011;42435;53.292;6.000;2023-11-18T03:01:08;89.65;;;37.55;;
56537;SDS011;42435;53.292;6.000;2023-11-18T03:03:34;98.40;;;38.25;;
56537;SDS011;42435;53.292;6.000;2023-11-18T03:06:17;102.55;;;40.05;;
56537;SDS011;42435;53.292;6.000;2023-11-18T03:08:51;122.43;;;42.33;;
56537;SDS011;42435;53.292;6.000;2023-11-18T03:11:20;100.78;;;38.00;;
56537;SDS011;42435;53.292;6.000;2023-11-18T03:13:50;115.50;;;42.83;;
56537;SDS011;42435;53.292;6.000;2023-11-18T03:16:16;100.03;;;39.08;;
56537;SDS011;42435;53.292;6.000;2023-11-18T03:18:48;111.45;;;41.22;;
56537;SDS011;42435;53.292;6.000;2023-11-18T03:21:20;98.43;;;38.00;;
56537;SDS011;42435;53.292;6.000;2023-11-18T03:23:47;89.35;;;38.75;;
56537;SDS011;42435;53.292;6.000;2023-11-18T03:26:14;117.88;;;42.63;;
56537;SDS011;42435;53.292;6.000;2023-11-18T03:28:43;108.30;;;40.95;;
56537;SDS011;42435;53.292;6.000;2023-11-18T03:31:09;125.22;;;44.00;;
56537;SDS011;42435;53.292;6.000;2023-11-18T03:33:42;108.70;;;40.33;;
56537;SDS011;42435;53.292;6.000;2023-11-18T03:36:16;112.82;;;43.67;;
56537;SDS011;42435;53.292;6.000;2023-11-18T03:38:44;114.18;;;41.03;;
56537;SDS011;42435;53.292;6.000;2023-11-18T03:41:11;110.95;;;44.75;;
56537;SDS011;42435;53.292;6.000;2023-11-18T03:43:44;118.63;;;41.67;;
56537;SDS011;42435;53.292;6.000;2023-11-18T03:46:17;124.28;;;44.05;;
56537;SDS011;42435;53.292;6.000;2023-11-18T03:48:53;112.60;;;41.60;;
56537;SDS011;42435;53.292;6.000;2023-11-18T03:51:25;107.15;;;41.03;;
56537;SDS011;42435;53.292;6.000;2023-11-18T03:53:53;115.78;;;43.22;;
56537;SDS011;42435;53.292;6.000;2023-11-18T03:56:25;108.60;;;41.05;;
56537;SDS011;42435;53.292;6.000;2023-11-18T03:59:07;107.93;;;41.20;;
56537;SDS011;42435;53.292;6.000;2023-11-18T04:01:37;104.70;;;39.60;;
56537;SDS011;42435;53.292;6.000;2023-11-18T04:04:04;123.90;;;45.08;;
56537;SDS011;42435;53.292;6.000;2023-11-18T04:06:32;108.35;;;39.45;;
56537;SDS011;42435;53.292;6.000;2023-11-18T04:08:58;110.53;;;41.13;;
56537;SDS011;42435;53.292;6.000;2023-11-18T04:11:31;103.20;;;40.90;;
56537;SDS011;42435;53.292;6.000;2023-11-18T04:14:05;110.00;;;42.97;;
56537;SDS011;42435;53.292;6.000;2023-11-18T04:16:33;118.25;;;43.10;;
56537;SDS011;42435;53.292;6.000;2023-11-18T04:19:19;104.82;;;38.50;;
56537;SDS011;42435;53.292;6.000;2023-11-18T04:21:52;115.00;;;42.50;;
56537;SDS011;42435;53.292;6.000;2023-11-18T04:24:25;106.95;;;39.85;;
56537;SDS011;42435;53.292;6.000;2023-11-18T04:26:54;102.88;;;40.28;;
56537;SDS011;42435;53.292;6.000;2023-11-18T04:29:28;124.47;;;43.25;;
56537;SDS011;42435;53.292;6.000;2023-11-18T04:32:02;111.28;;;39.40;;
56537;SDS011;42435;53.292;6.000;2023-11-18T04:34:29;94.10;;;36.72;;
56537;SDS011;42435;53.292;6.000;2023-11-18T04:37:07;108.22;;;40.15;;
56537;SDS011;42435;53.292;6.000;2023-11-18T04:40:07;94.97;;;38.08;;
56537;SDS011;42435;53.292;6.000;2023-11-18T04:42:38;138.90;;;44.70;;
56537;SDS011;42435;53.292;6.000;2023-11-18T04:45:11;132.25;;;44.83;;
56537;SDS011;42435;53.292;6.000;2023-11-18T04:47:43;121.30;;;41.67;;
56537;SDS011;42435;53.292;6.000;2023-11-18T04:50:10;116.55;;;41.78;;
56537;SDS011;42435;53.292;6.000;2023-11-18T04:52:40;128.98;;;43.58;;
56537;SDS011;42435;53.292;6.000;2023-11-18T04:55:07;129.43;;;43.55;;
56537;SDS011;42435;53.292;6.000;2023-11-18T04:57:47;124.90;;;41.67;;
56537;SDS011;42435;53.292;6.000;2023-11-18T05:00:15;153.93;;;44.67;;
56537;SDS011;42435;53.292;6.000;2023-11-18T05:02:44;102.70;;;38.78;;
56537;SDS011;42435;53.292;6.000;2023-11-18T05:05:32;139.63;;;42.58;;
56537;SDS011;42435;53.292;6.000;2023-11-18T05:07:58;106.13;;;38.90;;
56537;SDS011;42435;53.292;6.000;2023-11-18T05:10:45;123.10;;;42.43;;
56537;SDS011;42435;53.292;6.000;2023-11-18T05:13:14;121.38;;;40.97;;
56537;SDS011;42435;53.292;6.000;2023-11-18T05:15:46;117.65;;;40.05;;
56537;SDS011;42435;53.292;6.000;2023-11-18T05:18:19;105.95;;;38.45;;
56537;SDS011;42435;53.292;6.000;2023-11-18T05:21:08;105.88;;;38.78;;
56537;SDS011;42435;53.292;6.000;2023-11-18T05:23:40;149.15;;;44.00;;
56537;SDS011;42435;53.292;6.000;2023-11-18T05:26:07;140.02;;;44.75;;
56537;SDS011;42435;53.292;6.000;2023-11-18T05:28:50;108.93;;;37.60;;
56537;SDS011;42435;53.292;6.000;2023-11-18T05:31:25;131.65;;;40.03;;
56537;SDS011;42435;53.292;6.000;2023-11-18T05:34:07;102.28;;;37.72;;
56537;SDS011;42435;53.292;6.000;2023-11-18T05:36:37;182.98;;;48.03;;
56537;SDS011;42435;53.292;6.000;2023-11-18T05:39:06;124.72;;;39.85;;
56537;SDS011;42435;53.292;6.000;2023-11-18T05:41:45;125.72;;;38.38;;
56537;SDS011;42435;53.292;6.000;2023-11-18T05:44:15;114.63;;;37.50;;
56537;SDS011;42435;53.292;6.000;2023-11-18T05:46:47;104.07;;;37.78;;
56537;SDS011;42435;53.292;6.000;2023-11-18T05:49:22;116.35;;;39.40;;
56537;SDS011;42435;53.292;6.000;2023-11-18T05:51:50;115.47;;;40.92;;
56537;SDS011;42435;53.292;6.000;2023-11-18T05:54:22;124.28;;;41.55;;
56537;SDS011;42435;53.292;6.000;2023-11-18T05:57:01;96.45;;;36.50;;
56537;SDS011;42435;53.292;6.000;2023-11-18T05:59:35;112.45;;;39.20;;
56537;SDS011;42435;53.292;6.000;2023-11-18T06:02:02;118.40;;;39.97;;
56537;SDS011;42435;53.292;6.000;2023-11-18T06:04:36;84.63;;;34.45;;
56537;SDS011;42435;53.292;6.000;2023-11-18T06:07:09;97.53;;;36.35;;
56537;SDS011;42435;53.292;6.000;2023-11-18T06:09:43;86.22;;;34.53;;
56537;SDS011;42435;53.292;6.000;2023-11-18T06:12:15;103.88;;;38.60;;
56537;SDS011;42435;53.292;6.000;2023-11-18T06:14:47;86.55;;;34.70;;
56537;SDS011;42435;53.292;6.000;2023-11-18T06:17:16;86.13;;;35.85;;
56537;SDS011;42435;53.292;6.000;2023-11-18T06:19:44;96.45;;;36.33;;
56537;SDS011;42435;53.292;6.000;2023-11-18T06:22:19;92.53;;;35.80;;
56537;SDS011;42435;53.292;6.000;2023-11-18T06:24:52;90.63;;;36.80;;
56537;SDS011;42435;53.292;6.000;2023-11-18T06:27:22;78.22;;;33.53;;
56537;SDS011;42435;53.292;6.000;2023-11-18T06:29:50;81.43;;;34.78;;
56537;SDS011;42435;53.292;6.000;2023-11-18T06:32:22;74.53;;;33.17;;
56537;SDS011;42435;53.292;6.000;2023-11-18T06:34:59;75.35;;;34.63;;
56537;SDS011;42435;53.292;6.000;2023-11-18T06:37:31;83.28;;;33.95;;
56537;SDS011;42435;53.292;6.000;2023-11-18T06:40:08;105.85;;;36.83;;
56537;SDS011;42435;53.292;6.000;2023-11-18T06:42:42;81.65;;;35.53;;
56537;SDS011;42435;53.292;6.000;2023-11-18T06:45:14;86.78;;;34.55;;
56537;SDS011;42435;53.292;6.000;2023-11-18T06:47:44;89.20;;;36.83;;
56537;SDS011;42435;53.292;6.000;2023-11-18T06:50:20;84.22;;;36.00;;
56537;SDS011;42435;53.292;6.000;2023-11-18T06:52:52;81.72;;;33.00;;
56537;SDS011;42435;53.292;6.000;2023-11-18T06:55:21;78.78;;;34.67;;
56537;SDS011;42435;53.292;6.000;2023-11-18T06:57:51;79.57;;;33.80;;
56537;SDS011;42435;53.292;6.000;2023-11-18T07:00:22;79.22;;;34.25;;
56537;SDS011;42435;53.292;6.000;2023-11-18T07:02:53;76.07;;;34.70;;
56537;SDS011;42435;53.292;6.000;2023-11-18T07:05:20;91.22;;;36.30;;
56537;SDS011;42435;53.292;6.000;2023-11-18T07:07:52;89.25;;;35.97;;
56537;SDS011;42435;53.292;6.000;2023-11-18T07:10:20;81.72;;;34.55;;
56537;SDS011;42435;53.292;6.000;2023-11-18T07:12:51;82.18;;;35.17;;
56537;SDS011;42435;53.292;6.000;2023-11-18T07:15:16;72.13;;;33.30;;
56537;SDS011;42435;53.292;6.000;2023-11-18T07:17:50;82.70;;;34.72;;
56537;SDS011;42435;53.292;6.000;2023-11-18T07:20:16;78.57;;;34.33;;
56537;SDS011;42435;53.292;6.000;2023-11-18T07:22:45;79.18;;;33.63;;
56537;SDS011;42435;53.292;6.000;2023-11-18T07:25:13;80.28;;;34.35;;
56537;SDS011;42435;53.292;6.000;2023-11-18T07:27:48;69.80;;;31.60;;
56537;SDS011;42435;53.292;6.000;2023-11-18T07:33:03;77.50;;;34.63;;
56537;SDS011;42435;53.292;6.000;2023-11-18T07:35:31;76.53;;;32.15;;
56537;SDS011;42435;53.292;6.000;2023-11-18T07:38:12;73.72;;;31.67;;
56537;SDS011;42435;53.292;6.000;2023-11-18T07:40:38;73.97;;;31.92;;
56537;SDS011;42435;53.292;6.000;2023-11-18T07:43:11;74.97;;;32.58;;
56537;SDS011;42435;53.292;6.000;2023-11-18T07:45:55;71.28;;;31.45;;
56537;SDS011;42435;53.292;6.000;2023-11-18T07:48:23;74.10;;;33.38;;
56537;SDS011;42435;53.292;6.000;2023-11-18T07:51:00;74.82;;;31.13;;
56537;SDS011;42435;53.292;6.000;2023-11-18T07:53:34;70.20;;;31.45;;
56537;SDS011;42435;53.292;6.000;2023-11-18T07:56:07;61.63;;;28.48;;
56537;SDS011;42435;53.292;6.000;2023-11-18T07:58:41;68.72;;;30.33;;
56537;SDS011;42435;53.292;6.000;2023-11-18T08:01:12;70.80;;;30.35;;
56537;SDS011;42435;53.292;6.000;2023-11-18T08:03:55;70.53;;;29.63;;
56537;SDS011;42435;53.292;6.000;2023-11-18T08:06:33;68.45;;;28.30;;
56537;SDS011;42435;53.292;6.000;2023-11-18T08:09:04;65.55;;;28.08;;
56537;SDS011;42435;53.292;6.000;2023-11-18T08:11:50;65.13;;;27.42;;
56537;SDS011;42435;53.292;6.000;2023-11-18T08:14:20;68.88;;;28.33;;
56537;SDS011;42435;53.292;6.000;2023-11-18T08:19:34;58.03;;;27.00;;
56537;SDS011;42435;53.292;6.000;2023-11-18T08:22:02;57.75;;;27.50;;
56537;SDS011;42435;53.292;6.000;2023-11-18T08:24:32;67.10;;;28.75;;
56537;SDS011;42435;53.292;6.000;2023-11-18T08:26:58;65.97;;;26.48;;
56537;SDS011;42435;53.292;6.000;2023-11-18T08:29:32;65.40;;;27.63;;
56537;SDS011;42435;53.292;6.000;2023-11-18T08:32:01;65.10;;;26.98;;
56537;SDS011;42435;53.292;6.000;2023-11-18T08:34:50;62.03;;;27.30;;
56537;SDS011;42435;53.292;6.000;2023-11-18T08:37:19;65.35;;;28.80;;
56537;SDS011;42435;53.292;6.000;2023-11-18T08:39:56;69.72;;;30.05;;
56537;SDS011;42435;53.292;6.000;2023-11-18T08:42:25;67.68;;;30.60;;
56537;SDS011;42435;53.292;6.000;2023-11-18T08:44:53;66.53;;;28.88;;
56537;SDS011;42435;53.292;6.000;2023-11-18T08:47:28;65.57;;;27.58;;
56537;SDS011;42435;53.292;6.000;2023-11-18T08:50:00;63.65;;;28.60;;
56537;SDS011;42435;53.292;6.000;2023-11-18T08:52:40;64.15;;;27.38;;
56537;SDS011;42435;53.292;6.000;2023-11-18T08:55:21;57.25;;;27.20;;
56537;SDS011;42435;53.292;6.000;2023-11-18T08:57:55;65.03;;;26.75;;
56537;SDS011;42435;53.292;6.000;2023-11-18T09:00:27;59.25;;;26.65;;
56537;SDS011;42435;53.292;6.000;2023-11-18T09:06:14;59.92;;;27.40;;
56537;SDS011;42435;53.292;6.000;2023-11-18T09:09:08;63.47;;;28.67;;
56537;SDS011;42435;53.292;6.000;2023-11-18T09:11:40;59.67;;;26.88;;
56537;SDS011;42435;53.292;6.000;2023-11-18T09:14:07;58.70;;;26.35;;
56537;SDS011;42435;53.292;6.000;2023-11-18T09:16:33;61.35;;;27.42;;
56537;SDS011;42435;53.292;6.000;2023-11-18T09:19:04;67.65;;;26.23;;
56537;SDS011;42435;53.292;6.000;2023-11-18T09:21:36;58.17;;;25.67;;
56537;SDS011;42435;53.292;6.000;2023-11-18T09:24:08;55.92;;;25.50;;
56537;SDS011;42435;53.292;6.000;2023-11-18T09:26:40;55.10;;;25.95;;
56537;SDS011;42435;53.292;6.000;2023-11-18T09:29:12;57.28;;;25.85;;
56537;SDS011;42435;53.292;6.000;2023-11-18T09:31:51;62.15;;;28.10;;
56537;SDS011;42435;53.292;6.000;2023-11-18T09:34:24;64.55;;;27.10;;
56537;SDS011;42435;53.292;6.000;2023-11-18T09:37:10;59.38;;;26.77;;
56537;SDS011;42435;53.292;6.000;2023-11-18T09:39:39;56.70;;;25.48;;
56537;SDS011;42435;53.292;6.000;2023-11-18T09:42:10;54.88;;;25.27;;
56537;SDS011;42435;53.292;6.000;2023-11-18T09:44:39;61.38;;;25.55;;
56537;SDS011;42435;53.292;6.000;2023-11-18T09:47:07;59.13;;;25.23;;
56537;SDS011;42435;53.292;6.000;2023-11-18T09:49:37;56.80;;;26.52;;
56537;SDS011;42435;53.292;6.000;2023-11-18T09:52:09;61.40;;;24.90;;
56537;SDS011;42435;53.292;6.000;2023-11-18T09:54:45;55.97;;;23.50;;
56537;SDS011;42435;53.292;6.000;2023-11-18T09:57:26;55.45;;;25.42;;
56537;SDS011;42435;53.292;6.000;2023-11-18T10:00:00;62.42;;;27.13;;
56537;SDS011;42435;53.292;6.000;2023-11-18T10:02:48;54.53;;;23.77;;
56537;SDS011;42435;53.292;6.000;2023-11-18T10:05:15;56.65;;;23.80;;
56537;SDS011;42435;53.292;6.000;2023-11-18T10:07:45;56.03;;;25.30;;
56537;SDS011;42435;53.292;6.000;2023-11-18T10:10:14;57.25;;;25.15;;
56537;SDS011;42435;53.292;6.000;2023-11-18T10:12:49;55.05;;;25.15;;
56537;SDS011;42435;53.292;6.000;2023-11-18T10:15:23;52.65;;;24.40;;
56537;SDS011;42435;53.292;6.000;2023-11-18T10:17:50;56.60;;;24.85;;
56537;SDS011;42435;53.292;6.000;2023-11-18T10:20:22;53.30;;;24.33;;
56537;SDS011;42435;53.292;6.000;2023-11-18T10:23:06;57.08;;;24.65;;
56537;SDS011;42435;53.292;6.000;2023-11-18T10:25:35;57.30;;;24.92;;
56537;SDS011;42435;53.292;6.000;2023-11-18T10:28:31;52.88;;;24.75;;
56537;SDS011;42435;53.292;6.000;2023-11-18T10:31:01;54.65;;;25.73;;
56537;SDS011;42435;53.292;6.000;2023-11-18T10:33:32;50.83;;;24.17;;
56537;SDS011;42435;53.292;6.000;2023-11-18T10:36:01;54.05;;;25.25;;
56537;SDS011;42435;53.292;6.000;2023-11-18T10:38:32;58.05;;;23.80;;
56537;SDS011;42435;53.292;6.000;2023-11-18T10:41:07;56.72;;;24.50;;
56537;SDS011;42435;53.292;6.000;2023-11-18T10:43:34;51.70;;;23.95;;
56537;SDS011;42435;53.292;6.000;2023-11-18T10:46:07;57.78;;;26.77;;
56537;SDS011;42435;53.292;6.000;2023-11-18T10:48:41;62.70;;;27.38;;
56537;SDS011;42435;53.292;6.000;2023-11-18T10:51:13;52.88;;;25.40;;
56537;SDS011;42435;53.292;6.000;2023-11-18T10:53:43;55.95;;;25.88;;
56537;SDS011;42435;53.292;6.000;2023-11-18T10:56:21;58.83;;;28.63;;
56537;SDS011;42435;53.292;6.000;2023-11-18T10:58:57;57.33;;;26.10;;
56537;SDS011;42435;53.292;6.000;2023-11-18T11:01:31;59.42;;;26.58;;
56537;SDS011;42435;53.292;6.000;2023-11-18T11:04:07;60.03;;;28.02;;
56537;SDS011;42435;53.292;6.000;2023-11-18T11:06:35;59.90;;;28.20;;
56537;SDS011;42435;53.292;6.000;2023-11-18T11:09:09;57.75;;;26.77;;
56537;SDS011;42435;53.292;6.000;2023-11-18T11:11:49;61.47;;;27.25;;
56537;SDS011;42435;53.292;6.000;2023-11-18T11:14:20;58.15;;;25.50;;
56537;SDS011;42435;53.292;6.000;2023-11-18T11:16:52;53.10;;;25.10;;
56537;SDS011;42435;53.292;6.000;2023-11-18T11:19:23;60.83;;;27.13;;
56537;SDS011;42435;53.292;6.000;2023-11-18T11:21:53;56.70;;;25.25;;
56537;SDS011;42435;53.292;6.000;2023-11-18T11:30:02;57.42;;;24.85;;
56537;SDS011;42435;53.292;6.000;2023-11-18T11:33:00;61.15;;;26.55;;
56537;SDS011;42435;53.292;6.000;2023-11-18T11:35:40;60.85;;;26.77;;
56537;SDS011;42435;53.292;6.000;2023-11-18T11:38:11;65.45;;;26.80;;
56537;SDS011;42435;53.292;6.000;2023-11-18T11:40:38;65.45;;;26.83;;
56537;SDS011;42435;53.292;6.000;2023-11-18T11:43:07;63.85;;;26.42;;
56537;SDS011;42435;53.292;6.000;2023-11-18T11:45:35;70.95;;;28.75;;
56537;SDS011;42435;53.292;6.000;2023-11-18T11:48:04;72.60;;;31.38;;
56537;SDS011;42435;53.292;6.000;2023-11-18T11:54:10;65.18;;;27.25;;
56537;SDS011;42435;53.292;6.000;2023-11-18T11:56:45;64.07;;;29.30;;
56537;SDS011;42435;53.292;6.000;2023-11-18T11:59:12;71.40;;;30.33;;
56537;SDS011;42435;53.292;6.000;2023-11-18T12:01:41;73.32;;;29.10;;
56537;SDS011;42435;53.292;6.000;2023-11-18T12:04:12;79.93;;;31.02;;
56537;SDS011;42435;53.292;6.000;2023-11-18T12:06:47;72.13;;;30.40;;
56537;SDS011;42435;53.292;6.000;2023-11-18T12:09:13;71.07;;;29.35;;
56537;SDS011;42435;53.292;6.000;2023-11-18T12:11:48;70.80;;;29.90;;
56537;SDS011;42435;53.292;6.000;2023-11-18T12:14:15;73.90;;;30.38;;
56537;SDS011;42435;53.292;6.000;2023-11-18T12:17:26;70.43;;;28.92;;
56537;SDS011;42435;53.292;6.000;2023-11-18T12:19:34;68.85;;;29.80;;
56537;SDS011;42435;53.292;6.000;2023-11-18T12:22:19;70.22;;;30.30;;
56537;SDS011;42435;53.292;6.000;2023-11-18T12:33:04;60.85;;;27.27;;
56537;SDS011;42435;53.292;6.000;2023-11-18T12:35:44;63.80;;;28.50;;
56537;SDS011;42435;53.292;6.000;2023-11-18T12:47:02;64.85;;;28.13;;
56537;SDS011;42435;53.292;6.000;2023-11-18T12:49:39;67.78;;;30.45;;
56537;SDS011;42435;53.292;6.000;2023-11-18T12:52:06;58.38;;;27.33;;
56537;SDS011;42435;53.292;6.000;2023-11-18T12:54:38;58.17;;;26.75;;
56537;SDS011;42435;53.292;6.000;2023-11-18T12:57:08;63.58;;;29.40;;
56537;SDS011;42435;53.292;6.000;2023-11-18T12:59:40;59.05;;;27.60;;
56537;SDS011;42435;53.292;6.000;2023-11-18T13:02:07;58.67;;;26.92;;
56537;SDS011;42435;53.292;6.000;2023-11-18T13:04:43;56.40;;;25.48;;
56537;SDS011;42435;53.292;6.000;2023-11-18T13:07:12;53.55;;;26.30;;
56537;SDS011;42435;53.292;6.000;2023-11-18T13:09:39;60.85;;;26.77;;
56537;SDS011;42435;53.292;6.000;2023-11-18T13:12:07;51.85;;;25.00;;
56537;SDS011;42435;53.292;6.000;2023-11-18T13:14:34;46.15;;;22.73;;
56537;SDS011;42435;53.292;6.000;2023-11-18T13:17:04;42.65;;;22.08;;
56537;SDS011;42435;53.292;6.000;2023-11-18T13:19:33;46.72;;;24.00;;
56537;SDS011;42435;53.292;6.000;2023-11-18T13:21:59;45.88;;;21.88;;
56537;SDS011;42435;53.292;6.000;2023-11-18T13:24:29;47.40;;;21.77;;
56537;SDS011;42435;53.292;6.000;2023-11-18T13:26:56;42.60;;;21.38;;
56537;SDS011;42435;53.292;6.000;2023-11-18T13:29:23;41.15;;;20.77;;
56537;SDS011;42435;53.292;6.000;2023-11-18T13:31:52;43.72;;;20.80;;
56537;SDS011;42435;53.292;6.000;2023-11-18T13:34:19;41.05;;;19.45;;
56537;SDS011;42435;53.292;6.000;2023-11-18T13:36:47;37.05;;;19.20;;
56537;SDS011;42435;53.292;6.000;2023-11-18T13:39:18;39.88;;;19.52;;
56537;SDS011;42435;53.292;6.000;2023-11-18T13:41:44;40.78;;;19.17;;
56537;SDS011;42435;53.292;6.000;2023-11-18T13:44:36;38.25;;;19.02;;
56537;SDS011;42435;53.292;6.000;2023-11-18T13:47:04;37.92;;;17.73;;
56537;SDS011;42435;53.292;6.000;2023-11-18T13:49:39;40.92;;;19.48;;
56537;SDS011;42435;53.292;6.000;2023-11-18T13:52:06;34.25;;;16.77;;
56537;SDS011;42435;53.292;6.000;2023-11-18T13:54:37;36.03;;;18.42;;
56537;SDS011;42435;53.292;6.000;2023-11-18T13:57:03;34.60;;;18.00;;
56537;SDS011;42435;53.292;6.000;2023-11-18T13:59:30;37.85;;;17.92;;
56537;SDS011;42435;53.292;6.000;2023-11-18T14:01:57;43.22;;;18.92;;
56537;SDS011;42435;53.292;6.000;2023-11-18T14:04:27;35.67;;;18.23;;
56537;SDS011;42435;53.292;6.000;2023-11-18T14:06:56;33.88;;;17.10;;
56537;SDS011;42435;53.292;6.000;2023-11-18T14:09:22;41.92;;;18.73;;
56537;SDS011;42435;53.292;6.000;2023-11-18T14:11:56;34.88;;;17.30;;
56537;SDS011;42435;53.292;6.000;2023-11-18T14:14:22;31.13;;;17.13;;
56537;SDS011;42435;53.292;6.000;2023-11-18T14:16:48;29.45;;;15.32;;
56537;SDS011;42435;53.292;6.000;2023-11-18T14:19:14;35.72;;;17.77;;
56537;SDS011;42435;53.292;6.000;2023-11-18T14:21:40;35.08;;;17.15;;
56537;SDS011;42435;53.292;6.000;2023-11-18T14:24:10;29.13;;;16.05;;
56537;SDS011;42435;53.292;6.000;2023-11-18T14:26:37;29.35;;;17.05;;
56537;SDS011;42435;53.292;6.000;2023-11-18T14:29:07;32.30;;;17.98;;
56537;SDS011;42435;53.292;6.000;2023-11-18T14:31:33;30.42;;;15.93;;
56537;SDS011;42435;53.292;6.000;2023-11-18T14:33:59;35.90;;;17.05;;
56537;SDS011;42435;53.292;6.000;2023-11-18T14:36:25;32.95;;;17.60;;
56537;SDS011;42435;53.292;6.000;2023-11-18T14:38:51;33.63;;;17.83;;
56537;SDS011;42435;53.292;6.000;2023-11-18T14:41:20;30.58;;;16.40;;
56537;SDS011;42435;53.292;6.000;2023-11-18T14:43:50;38.45;;;19.05;;
56537;SDS011;42435;53.292;6.000;2023-11-18T14:46:16;34.78;;;18.60;;
56537;SDS011;42435;53.292;6.000;2023-11-18T14:48:46;33.10;;;18.23;;
56537;SDS011;42435;53.292;6.000;2023-11-18T14:51:12;34.63;;;18.88;;
56537;SDS011;42435;53.292;6.000;2023-11-18T14:53:37;34.63;;;18.65;;
56537;SDS011;42435;53.292;6.000;2023-11-18T14:56:04;40.25;;;18.20;;
56537;SDS011;42435;53.292;6.000;2023-11-18T14:58:34;29.08;;;16.23;;
56537;SDS011;42435;53.292;6.000;2023-11-18T15:01:03;28.65;;;17.65;;
56537;SDS011;42435;53.292;6.000;2023-11-18T15:03:32;28.08;;;16.15;;
56537;SDS011;42435;53.292;6.000;2023-11-18T15:05:58;30.85;;;17.13;;
56537;SDS011;42435;53.292;6.000;2023-11-18T15:08:27;28.48;;;16.48;;
56537;SDS011;42435;53.292;6.000;2023-11-18T15:10:52;29.88;;;15.85;;
56537;SDS011;42435;53.292;6.000;2023-11-18T15:13:18;31.58;;;17.05;;
56537;SDS011;42435;53.292;6.000;2023-11-18T15:15:44;27.33;;;16.30;;
56537;SDS011;42435;53.292;6.000;2023-11-18T15:18:12;25.20;;;15.63;;
56537;SDS011;42435;53.292;6.000;2023-11-18T15:20:39;25.02;;;14.45;;
56537;SDS011;42435;53.292;6.000;2023-11-18T15:23:08;26.05;;;14.20;;
56537;SDS011;42435;53.292;6.000;2023-11-18T15:25:34;33.17;;;15.45;;
56537;SDS011;42435;53.292;6.000;2023-11-18T15:28:03;27.52;;;15.52;;
56537;SDS011;42435;53.292;6.000;2023-11-18T15:30:29;26.73;;;15.13;;